createdAt,value
2018-10-06T00:01:05.814Z,5.83
2018-10-06T00:03:10.724Z,4.83
2018-10-06T00:05:15.902Z,5.30
2018-10-06T00:07:20.750Z,4.40
2018-10-06T00:09:25.696Z,4.37
2018-10-06T00:11:30.932Z,5.20
2018-10-06T00:13:35.911Z,5.97
2018-10-06T00:15:41.399Z,4.57
2018-10-06T00:17:46.431Z,5.47
2018-10-06T00:19:51.532Z,6.10
2018-10-06T00:21:56.844Z,4.80
2018-10-06T00:24:01.939Z,5.40
2018-10-06T00:26:07.482Z,5.43
2018-10-06T00:28:12.369Z,5.00
2018-10-06T00:30:17.751Z,5.60
2018-10-06T00:32:22.993Z,5.57
2018-10-06T00:34:28.361Z,5.07
2018-10-06T00:36:33.633Z,5.27
2018-10-06T00:38:39.398Z,5.87
2018-10-06T00:40:44.328Z,4.17
2018-10-06T00:42:49.181Z,5.77
2018-10-06T00:44:54.198Z,5.50
2018-10-06T00:46:59.173Z,5.20
2018-10-06T00:49:03.826Z,5.80
2018-10-06T00:51:08.880Z,5.00
2018-10-06T00:53:14.209Z,4.80
2018-10-06T00:55:19.561Z,5.83
2018-10-06T00:57:24.679Z,5.57
2018-10-06T00:59:29.892Z,5.80
2018-10-06T01:01:35.222Z,5.93
2018-10-06T01:03:40.382Z,4.83
2018-10-06T01:05:45.332Z,4.77
2018-10-06T01:07:50.112Z,5.73
2018-10-06T01:09:54.914Z,5.63
2018-10-06T01:12:00.297Z,5.70
2018-10-06T01:14:06.175Z,5.17
2018-10-06T01:16:10.864Z,5.20
2018-10-06T01:18:16.370Z,5.50
2018-10-06T01:20:21.262Z,5.47
2018-10-06T01:22:26.435Z,5.30
2018-10-06T01:24:31.965Z,4.87
2018-10-06T01:26:37.250Z,5.73
2018-10-06T01:28:42.099Z,5.80
2018-10-06T01:30:47.221Z,5.70
2018-10-06T01:32:52.339Z,5.87
2018-10-06T01:34:57.414Z,5.80
2018-10-06T01:37:02.576Z,5.57
2018-10-06T01:39:08.742Z,6.80
2018-10-06T01:41:13.473Z,6.47
2018-10-06T01:43:18.359Z,5.93
2018-10-06T01:45:23.305Z,6.20
2018-10-06T01:47:28.314Z,5.67
2018-10-06T01:49:33.253Z,5.90
2018-10-06T01:51:38.210Z,5.93
2018-10-06T01:53:42.875Z,5.63
2018-10-06T01:55:47.759Z,5.83
2018-10-06T01:57:52.434Z,5.73
2018-10-06T01:59:57.169Z,5.77
2018-10-06T02:02:02.194Z,5.33
2018-10-06T02:04:06.848Z,5.37
2018-10-06T02:06:11.819Z,5.23
2018-10-06T02:08:16.894Z,5.30
2018-10-06T02:10:21.857Z,5.73
2018-10-06T02:12:26.636Z,6.00
2018-10-06T02:14:31.879Z,5.70
2018-10-06T02:16:36.548Z,4.93
2018-10-06T02:18:41.460Z,5.50
2018-10-06T02:20:46.425Z,5.30
2018-10-06T02:22:51.327Z,5.07
2018-10-06T02:24:56.313Z,5.80
2018-10-06T02:27:01.569Z,5.13
2018-10-06T02:29:06.387Z,5.20
2018-10-06T02:31:11.347Z,5.60
2018-10-06T02:33:16.162Z,5.73
2018-10-06T02:35:21.263Z,4.87
2018-10-06T02:37:26.598Z,5.37
2018-10-06T02:39:31.470Z,5.80
2018-10-06T02:41:36.596Z,5.27
2018-10-06T02:43:41.365Z,5.40
2018-10-06T02:45:46.572Z,5.23
2018-10-06T02:47:51.729Z,6.13
2018-10-06T02:49:56.651Z,5.90
2018-10-06T02:52:01.436Z,6.27
2018-10-06T02:54:06.228Z,6.07
2018-10-06T02:56:11.487Z,5.70
2018-10-06T02:58:16.523Z,5.80
2018-10-06T03:00:21.433Z,5.90
2018-10-06T03:02:26.668Z,5.50
2018-10-06T03:04:31.552Z,5.40
2018-10-06T03:06:36.466Z,5.10
2018-10-06T03:08:41.551Z,4.93
2018-10-06T03:10:46.877Z,5.87
2018-10-06T03:12:52.351Z,5.60
2018-10-06T03:14:57.371Z,6.03
2018-10-06T03:17:02.244Z,5.47
2018-10-06T03:19:07.249Z,5.57
2018-10-06T03:21:11.970Z,5.70
2018-10-06T03:23:17.029Z,4.87
2018-10-06T03:25:22.033Z,6.40
2018-10-06T03:27:26.822Z,5.53
2018-10-06T03:29:31.785Z,5.27
2018-10-06T03:31:36.775Z,6.40
2018-10-06T03:33:41.902Z,5.47
2018-10-06T03:35:47.035Z,5.00
2018-10-06T03:37:51.756Z,5.53
2018-10-06T03:39:56.631Z,4.90
2018-10-06T03:42:01.759Z,5.30
2018-10-06T03:44:06.740Z,5.90
2018-10-06T03:46:18.564Z,5.53
2018-10-06T03:48:23.429Z,5.10
2018-10-06T03:50:28.164Z,6.33
2018-10-06T03:52:32.884Z,5.50
2018-10-06T03:54:37.571Z,5.73
2018-10-06T03:56:43.712Z,5.03
2018-10-06T03:58:48.401Z,4.50
2018-10-06T04:00:53.081Z,5.33
2018-10-06T04:02:57.713Z,5.17
2018-10-06T04:05:02.514Z,4.93
2018-10-06T04:07:07.289Z,5.40
2018-10-06T04:09:12.030Z,5.10
2018-10-06T04:11:16.694Z,5.20
2018-10-06T04:13:21.445Z,5.67
2018-10-06T04:15:26.309Z,5.40
2018-10-06T04:17:31.023Z,5.50
2018-10-06T04:19:35.721Z,5.90
2018-10-06T04:21:46.671Z,5.07
2018-10-06T04:23:51.561Z,5.37
2018-10-06T04:25:56.197Z,5.80
2018-10-06T04:28:00.887Z,5.93
2018-10-06T04:30:05.925Z,5.20
2018-10-06T04:32:10.638Z,5.40
2018-10-06T04:34:15.371Z,4.87
2018-10-06T04:36:20.068Z,5.63
2018-10-06T04:38:24.799Z,4.83
2018-10-06T04:40:29.442Z,5.70
2018-10-06T04:42:34.085Z,6.03
2018-10-06T04:44:38.759Z,5.97
2018-10-06T04:46:43.435Z,5.30
2018-10-06T04:48:48.088Z,5.27
2018-10-06T04:50:52.771Z,4.90
2018-10-06T04:52:57.757Z,5.33
2018-10-06T04:55:02.444Z,5.30
2018-10-06T04:57:07.293Z,4.70
2018-10-06T04:59:11.978Z,5.60
2018-10-06T05:01:16.887Z,5.10
2018-10-06T05:03:21.730Z,4.33
2018-10-06T05:05:26.537Z,4.80
2018-10-06T05:07:31.251Z,5.23
2018-10-06T05:09:35.930Z,5.43
2018-10-06T05:11:40.603Z,5.00
2018-10-06T05:13:45.540Z,5.33
2018-10-06T05:15:50.329Z,6.10
2018-10-06T05:17:55.024Z,4.50
2018-10-06T05:19:59.754Z,5.53
2018-10-06T05:22:04.434Z,5.70
2018-10-06T05:24:09.057Z,5.43
2018-10-06T05:26:13.813Z,4.77
2018-10-06T05:28:18.598Z,5.33
2018-10-06T05:30:23.541Z,5.20
2018-10-06T05:32:28.552Z,5.57
2018-10-06T05:34:33.287Z,4.60
2018-10-06T05:36:38.059Z,5.87
2018-10-06T05:38:42.788Z,4.93
2018-10-06T05:40:47.635Z,4.93
2018-10-06T05:42:52.370Z,5.10
2018-10-06T05:44:57.216Z,5.77
2018-10-06T05:47:02.147Z,5.60
2018-10-06T05:49:07.204Z,5.20
2018-10-06T05:51:11.904Z,5.23
2018-10-06T05:53:16.669Z,5.30
2018-10-06T05:55:21.490Z,5.40
2018-10-06T05:57:26.276Z,4.27
2018-10-06T05:59:30.979Z,5.37
2018-10-06T06:01:35.878Z,5.20
2018-10-06T06:03:40.913Z,4.90
2018-10-06T06:05:45.668Z,5.57
2018-10-06T06:07:50.386Z,5.10
2018-10-06T06:09:55.520Z,5.80
2018-10-06T06:12:00.287Z,5.50
2018-10-06T06:14:05.314Z,4.90
2018-10-06T06:16:10.615Z,5.17
2018-10-06T06:18:15.428Z,5.33
2018-10-06T06:20:20.520Z,5.90
2018-10-06T06:22:25.615Z,4.67
2018-10-06T06:24:30.851Z,5.13
2018-10-06T06:26:35.659Z,4.80
2018-10-06T06:28:40.542Z,4.40
2018-10-06T06:30:45.585Z,5.20
2018-10-06T06:32:50.512Z,4.40
2018-10-06T06:34:55.509Z,4.40
2018-10-06T06:37:00.334Z,4.70
2018-10-06T06:39:06.061Z,4.93
2018-10-06T06:41:10.909Z,5.23
2018-10-06T06:43:15.681Z,4.90
2018-10-06T06:45:20.455Z,4.50
2018-10-06T06:47:25.428Z,5.60
2018-10-06T06:49:30.389Z,4.93
2018-10-06T06:51:35.475Z,5.43
2018-10-06T06:53:40.475Z,5.20
2018-10-06T06:55:45.247Z,4.70
2018-10-06T06:57:50.194Z,4.33
2018-10-06T06:59:54.825Z,4.77
2018-10-06T07:01:59.766Z,5.03
2018-10-06T07:04:04.690Z,5.30
2018-10-06T07:06:10.398Z,4.57
2018-10-06T07:08:15.569Z,4.97
2018-10-06T07:10:21.006Z,4.77
2018-10-06T07:12:25.962Z,4.83
2018-10-06T07:14:30.979Z,4.90
2018-10-06T07:16:36.362Z,5.10
2018-10-06T07:18:41.410Z,5.10
2018-10-06T07:20:46.404Z,4.90
2018-10-06T07:22:51.908Z,4.90
2018-10-06T07:24:57.074Z,4.33
2018-10-06T07:27:02.555Z,4.70
2018-10-06T07:29:07.905Z,4.30
2018-10-06T07:31:13.426Z,4.50
2018-10-06T07:33:18.671Z,4.67
2018-10-06T07:35:24.878Z,4.90
2018-10-06T07:37:30.297Z,4.57
2018-10-06T07:39:35.972Z,5.20
2018-10-06T07:41:41.259Z,4.37
2018-10-06T07:43:47.118Z,5.00
2018-10-06T07:45:52.259Z,4.70
2018-10-06T07:47:57.219Z,5.27
2018-10-06T07:50:02.245Z,4.97
2018-10-06T07:52:07.366Z,4.73
2018-10-06T07:54:13.193Z,4.70
2018-10-06T07:56:18.530Z,4.13
2018-10-06T07:58:25.189Z,4.50
2018-10-06T08:00:30.405Z,3.97
2018-10-06T08:02:35.802Z,4.50
2018-10-06T08:04:40.990Z,4.73
2018-10-06T08:06:46.709Z,4.57
2018-10-06T08:08:52.446Z,4.00
2018-10-06T08:11:02.692Z,4.60
2018-10-06T08:13:07.941Z,5.00
2018-10-06T08:15:13.042Z,5.13
2018-10-06T08:17:20.449Z,4.33
2018-10-06T08:19:25.468Z,3.80
2018-10-06T08:21:30.723Z,4.10
2018-10-06T08:23:36.320Z,4.77
2018-10-06T08:25:41.377Z,4.40
2018-10-06T08:27:47.404Z,3.60
2018-10-06T08:29:54.685Z,3.83
2018-10-06T08:32:07.312Z,4.73
2018-10-06T08:34:12.873Z,3.80
2018-10-06T08:36:18.524Z,3.70
2018-10-06T08:38:23.702Z,4.00
2018-10-06T08:40:29.216Z,4.20
2018-10-06T08:42:34.444Z,4.20
2018-10-06T08:44:42.289Z,3.77
2018-10-06T08:46:47.489Z,3.80
2018-10-06T08:48:52.505Z,3.47
2018-10-06T08:50:57.513Z,3.90
2018-10-06T08:53:02.508Z,3.33
2018-10-06T08:55:07.632Z,3.33
2018-10-06T08:57:12.797Z,3.50
2018-10-06T08:59:17.606Z,3.60
2018-10-06T09:01:23.275Z,3.40
2018-10-06T09:03:28.388Z,2.90
2018-10-06T09:05:33.160Z,3.90
2018-10-06T09:07:38.214Z,2.97
2018-10-06T09:09:43.354Z,3.47
2018-10-06T09:11:48.573Z,3.03
2018-10-06T09:13:53.518Z,4.17
2018-10-06T09:15:58.446Z,3.60
2018-10-06T09:18:03.560Z,3.30
2018-10-06T09:20:08.909Z,3.00
2018-10-06T09:22:15.337Z,3.50
2018-10-06T09:24:20.381Z,3.57
2018-10-06T09:26:25.581Z,3.07
2018-10-06T09:28:30.489Z,3.30
2018-10-06T09:30:35.588Z,3.47
2018-10-06T09:32:40.810Z,3.77
2018-10-06T09:34:45.841Z,3.10
2018-10-06T09:36:50.726Z,3.30
2018-10-06T09:38:55.894Z,3.53
2018-10-06T09:41:00.777Z,3.57
2018-10-06T09:43:05.908Z,3.53
2018-10-06T09:45:11.120Z,2.80
2018-10-06T09:47:15.931Z,3.83
2018-10-06T09:49:21.004Z,3.57
2018-10-06T09:51:26.090Z,3.37
2018-10-06T09:53:31.338Z,3.10
2018-10-06T09:55:39.268Z,3.47
2018-10-06T09:57:44.302Z,3.07
2018-10-06T09:59:49.308Z,3.53
2018-10-06T10:01:59.492Z,3.57
2018-10-06T10:04:08.520Z,3.70
2018-10-06T10:06:13.566Z,2.90
2018-10-06T10:08:18.709Z,2.90
2018-10-06T10:10:23.847Z,3.20
2018-10-06T10:12:28.858Z,2.73
2018-10-06T10:14:34.101Z,2.67
2018-10-06T10:16:39.240Z,3.00
2018-10-06T10:18:44.601Z,3.53
2018-10-06T10:20:50.979Z,3.40
2018-10-06T10:22:56.174Z,3.00
2018-10-06T10:25:01.300Z,3.00
2018-10-06T10:27:06.613Z,3.40
2018-10-06T10:29:16.141Z,3.60
2018-10-06T10:31:23.524Z,3.33
2018-10-06T10:33:28.411Z,2.93
2018-10-06T10:35:33.464Z,3.00
2018-10-06T10:37:38.196Z,3.37
2018-10-06T10:39:43.345Z,2.80
2018-10-06T10:41:48.470Z,2.83
2018-10-06T10:43:53.797Z,2.87
2018-10-06T10:45:59.033Z,3.10
2018-10-06T10:48:04.150Z,3.17
2018-10-06T10:50:09.031Z,3.10
2018-10-06T10:52:13.966Z,3.07
2018-10-06T10:54:18.961Z,2.60
2018-10-06T10:56:24.099Z,2.93
2018-10-06T10:58:29.461Z,2.77
2018-10-06T11:00:35.003Z,3.37
2018-10-06T11:02:39.906Z,3.30
2018-10-06T11:04:44.966Z,2.43
2018-10-06T11:06:50.020Z,3.30
2018-10-06T11:08:55.010Z,2.57
2018-10-06T11:11:01.217Z,2.63
2018-10-06T11:13:06.345Z,3.50
2018-10-06T11:15:11.147Z,2.30
2018-10-06T11:17:16.185Z,2.97
2018-10-06T11:19:21.217Z,2.60
2018-10-06T11:21:26.212Z,2.67
2018-10-06T11:23:31.322Z,3.00
2018-10-06T11:25:38.651Z,3.00
2018-10-06T11:27:44.388Z,2.30
2018-10-06T11:29:49.985Z,3.00
2018-10-06T11:31:56.223Z,2.90
2018-10-06T11:34:01.572Z,3.00
2018-10-06T11:36:06.606Z,3.07
2018-10-06T11:38:11.832Z,3.10
2018-10-06T11:40:16.852Z,2.37
2018-10-06T11:42:21.802Z,2.60
2018-10-06T11:44:26.766Z,2.20
2018-10-06T11:46:32.051Z,2.50
2018-10-06T11:48:37.238Z,1.83
2018-10-06T11:50:42.198Z,2.40
2018-10-06T11:52:47.305Z,1.90
2018-10-06T11:54:54.583Z,1.90
2018-10-06T11:57:00.623Z,2.00
2018-10-06T11:59:05.989Z,2.90
2018-10-06T12:01:12.716Z,2.57
2018-10-06T12:03:20.639Z,2.30
2018-10-06T12:05:25.845Z,2.03
2018-10-06T12:07:31.475Z,1.93
2018-10-06T12:09:36.610Z,2.23
2018-10-06T12:11:41.603Z,1.70
2018-10-06T12:13:46.648Z,2.10
2018-10-06T12:15:52.046Z,2.37
2018-10-06T12:17:58.932Z,2.60
2018-10-06T12:20:10.605Z,2.47
2018-10-06T12:24:29.822Z,2.50
2018-10-06T12:26:34.992Z,2.33
2018-10-06T12:28:40.585Z,1.90
2018-10-06T12:30:45.988Z,2.00
2018-10-06T12:32:51.895Z,2.10
2018-10-06T12:35:01.170Z,2.50
2018-10-06T12:37:10.846Z,2.20
2018-10-06T12:39:18.369Z,3.30
2018-10-06T12:41:28.141Z,2.63
2018-10-06T12:43:37.711Z,2.43
2018-10-06T12:45:45.661Z,2.10
2018-10-06T12:47:54.445Z,2.10
2018-10-06T12:50:03.107Z,2.27
2018-10-06T12:52:11.569Z,2.10
2018-10-06T12:54:19.008Z,2.60
2018-10-06T12:56:28.218Z,2.27
2018-10-06T12:58:34.686Z,2.17
2018-10-06T13:00:40.393Z,2.47
2018-10-06T13:02:48.893Z,2.53
2018-10-06T13:04:55.066Z,2.20
2018-10-06T13:07:03.579Z,2.33
2018-10-06T13:09:10.632Z,2.07
2018-10-06T13:11:15.804Z,1.90
2018-10-06T13:13:20.570Z,2.23
2018-10-06T13:15:25.457Z,1.87
2018-10-06T13:17:30.309Z,2.33
2018-10-06T13:19:35.680Z,2.50
2018-10-06T13:21:40.632Z,3.30
2018-10-06T13:23:45.959Z,1.87
2018-10-06T13:25:51.161Z,2.40
2018-10-06T13:27:55.961Z,2.20
2018-10-06T13:30:00.955Z,1.97
2018-10-06T13:32:06.106Z,1.87
2018-10-06T13:34:11.481Z,1.30
2018-10-06T13:36:17.022Z,1.63
2018-10-06T13:38:22.922Z,1.90
2018-10-06T13:40:28.485Z,2.00
2018-10-06T13:42:33.266Z,1.57
2018-10-06T13:44:38.018Z,1.67
2018-10-06T13:46:45.688Z,1.93
2018-10-06T13:48:50.908Z,1.90
2018-10-06T13:50:56.164Z,1.67
2018-10-06T13:53:00.880Z,1.70
2018-10-06T13:55:06.027Z,1.93
2018-10-06T13:57:10.985Z,2.00
2018-10-06T13:59:15.933Z,1.80
2018-10-06T14:03:19.210Z,1.87
2018-10-06T14:05:24.032Z,1.83
2018-10-06T14:07:28.887Z,1.63
2018-10-06T14:09:33.693Z,1.87
2018-10-06T14:11:38.590Z,1.40
2018-10-06T14:13:43.412Z,1.50
2018-10-06T14:15:48.163Z,1.10
2018-10-06T14:17:52.964Z,1.50
2018-10-06T14:19:57.911Z,1.63
2018-10-06T14:22:02.709Z,1.83
2018-10-06T14:24:07.598Z,2.10
2018-10-06T14:26:12.546Z,1.60
2018-10-06T14:28:17.319Z,2.17
2018-10-06T14:30:22.138Z,2.07
2018-10-06T14:32:26.918Z,2.50
2018-10-06T14:34:31.817Z,2.23
2018-10-06T14:36:36.636Z,2.20
2018-10-06T14:38:41.437Z,2.10
2018-10-06T14:40:46.575Z,2.13
2018-10-06T14:42:51.765Z,2.50
2018-10-06T14:44:56.603Z,1.80
2018-10-06T14:47:02.585Z,1.87
2018-10-06T14:49:07.650Z,1.70
2018-10-06T14:51:12.628Z,1.80
2018-10-06T14:53:17.721Z,1.50
2018-10-06T14:55:23.031Z,1.80
2018-10-06T14:57:28.172Z,1.63
2018-10-06T14:59:33.183Z,2.07
2018-10-06T15:01:38.308Z,1.77
2018-10-06T15:03:43.417Z,1.70
2018-10-06T15:05:48.632Z,2.07
2018-10-06T15:07:53.777Z,1.77
2018-10-06T15:09:58.791Z,1.80
2018-10-06T15:12:04.406Z,1.63
2018-10-06T15:14:09.796Z,2.10
2018-10-06T15:16:16.821Z,1.70
2018-10-06T15:18:22.041Z,2.20
2018-10-06T15:20:27.322Z,1.67
2018-10-06T15:22:32.201Z,2.33
2018-10-06T15:24:37.176Z,6.73
2018-10-06T15:26:42.402Z,2.03
2018-10-06T15:28:47.422Z,4.03
2018-10-06T15:30:52.553Z,3.90
2018-10-06T15:32:57.569Z,3.73
2018-10-06T15:35:02.495Z,32.60
2018-10-06T15:37:07.511Z,4.20
2018-10-06T15:39:16.850Z,1.97
2018-10-06T15:41:23.049Z,1.53
2018-10-06T15:43:31.758Z,4.10
2018-10-06T15:45:36.846Z,2.97
2018-10-06T15:47:41.759Z,2.63
2018-10-06T15:49:46.670Z,4.33
2018-10-06T15:51:51.485Z,2.30
2018-10-06T15:53:56.383Z,2.13
2018-10-06T15:59:16.062Z,1.53
2018-10-06T16:01:22.371Z,2.00
2018-10-06T16:16:18.950Z,2.87
2018-10-06T16:18:24.160Z,2.60
2018-10-06T16:20:29.408Z,2.80
2018-10-06T16:22:34.933Z,2.83
2018-10-06T16:24:41.322Z,2.87
2018-10-06T16:26:47.291Z,2.63
2018-10-06T16:28:54.335Z,2.30
2018-10-06T16:31:00.726Z,2.97
2018-10-06T16:33:06.633Z,2.53
2018-10-06T16:35:12.155Z,3.80
2018-10-06T16:37:17.328Z,4.40
2018-10-06T16:39:23.301Z,4.33
2018-10-06T16:41:30.793Z,3.53
2018-10-06T17:38:26.417Z,2.87
2018-10-06T17:40:36.716Z,2.70
2018-10-06T19:09:31.862Z,6.10
2018-10-06T19:14:42.815Z,5.30
2018-10-06T19:29:47.849Z,5.53
2018-10-06T19:31:54.794Z,7.00
2018-10-06T19:34:01.219Z,7.23
2018-10-06T19:36:06.910Z,6.20
2018-10-06T19:38:12.442Z,6.03
2018-10-06T19:40:18.171Z,5.40
2018-10-06T19:42:24.645Z,6.27
2018-10-06T19:44:30.627Z,5.10
2018-10-06T19:48:53.171Z,5.70
2018-10-06T19:51:00.108Z,5.70
2018-10-06T19:53:06.112Z,5.80
2018-10-06T19:55:12.011Z,5.87
2018-10-06T19:59:47.377Z,6.67
2018-10-06T20:01:53.824Z,5.70
2018-10-06T20:04:00.114Z,5.53
2018-10-06T20:06:06.347Z,7.00
2018-10-06T20:08:12.134Z,6.50
2018-10-06T20:10:20.896Z,5.33
2018-10-06T20:25:24.964Z,5.63
2018-10-06T20:27:30.495Z,5.80
2018-10-06T20:29:35.837Z,5.37
2018-10-06T20:31:46.317Z,6.00
2018-10-06T20:33:53.574Z,5.90
2018-10-06T20:36:00.809Z,6.33
2018-10-06T20:50:57.690Z,5.63
2018-10-06T20:53:05.439Z,5.87
2018-10-06T20:55:11.658Z,6.07
2018-10-06T20:57:25.918Z,6.93
2018-10-06T20:59:31.491Z,5.80
2018-10-06T21:14:18.486Z,5.63
2018-10-06T21:16:23.387Z,6.63
2018-10-06T21:18:28.626Z,6.53
2018-10-06T21:20:33.680Z,5.83
2018-10-06T21:22:39.235Z,5.70
2018-10-06T21:24:44.225Z,6.03
2018-10-06T21:26:49.371Z,6.27
2018-10-06T21:28:54.561Z,5.77
2018-10-06T21:30:59.604Z,5.40
2018-10-06T21:33:04.807Z,5.43
2018-10-06T21:35:09.594Z,5.70
2018-10-06T21:37:14.403Z,5.23
2018-10-06T21:39:19.629Z,5.60
2018-10-06T21:41:24.700Z,5.27
2018-10-06T21:43:29.924Z,5.90
2018-10-06T21:45:35.033Z,6.70
2018-10-06T21:47:39.813Z,5.33
2018-10-06T21:49:44.650Z,5.50
2018-10-06T21:51:49.630Z,7.20
2018-10-06T21:53:54.545Z,5.53
2018-10-06T21:55:59.503Z,5.70
2018-10-06T21:58:04.428Z,5.40
2018-10-06T22:00:09.428Z,6.87
2018-10-06T22:02:14.381Z,7.20
2018-10-06T22:04:19.246Z,7.80
2018-10-06T22:06:24.212Z,6.67
2018-10-06T22:08:29.077Z,8.00
2018-10-06T22:10:33.971Z,7.83
2018-10-06T22:12:38.873Z,8.17
2018-10-06T22:14:43.822Z,8.10
2018-10-06T22:16:48.625Z,8.63
2018-10-06T22:18:53.550Z,10.30
2018-10-06T22:20:58.376Z,11.93
2018-10-06T22:23:03.309Z,10.77
2018-10-06T22:25:08.256Z,10.80
2018-10-06T22:27:13.018Z,12.63
2018-10-06T22:29:18.037Z,12.03
2018-10-06T22:31:22.886Z,13.43
2018-10-06T22:33:27.725Z,12.37
2018-10-06T22:35:32.756Z,11.50
2018-10-06T22:37:37.726Z,13.33
2018-10-06T22:39:42.940Z,11.80
2018-10-06T22:41:47.734Z,10.57
2018-10-06T22:43:52.667Z,11.30
2018-10-06T22:45:57.470Z,11.00
2018-10-06T22:48:02.520Z,10.70
2018-10-06T22:50:08.433Z,11.87
2018-10-06T22:52:13.393Z,13.50
2018-10-06T22:54:18.541Z,10.57
2018-10-06T22:56:23.611Z,12.00
2018-10-06T22:58:28.458Z,13.77
2018-10-06T23:00:33.388Z,14.50
2018-10-06T23:02:38.220Z,14.93
2018-10-06T23:04:43.082Z,14.83
2018-10-06T23:06:48.302Z,15.93
2018-10-06T23:08:53.022Z,15.40
2018-10-06T23:10:57.950Z,17.50
2018-10-06T23:13:02.841Z,18.50
2018-10-06T23:15:07.724Z,17.23
2018-10-06T23:17:12.443Z,18.73
2018-10-06T23:19:17.177Z,19.43
2018-10-06T23:21:22.060Z,20.10
2018-10-06T23:23:26.914Z,18.17
2018-10-06T23:25:31.701Z,19.60
2018-10-06T23:27:36.517Z,18.00
2018-10-06T23:29:41.298Z,19.47
2018-10-06T23:31:46.075Z,19.47
2018-10-06T23:33:51.109Z,21.70
2018-10-06T23:35:55.865Z,20.17
2018-10-06T23:38:00.916Z,22.40
2018-10-06T23:40:05.693Z,21.97
2018-10-06T23:42:10.531Z,21.47
2018-10-06T23:44:15.257Z,20.83
2018-10-06T23:46:20.160Z,19.00
2018-10-06T23:48:24.931Z,21.17
2018-10-06T23:50:29.804Z,22.17
2018-10-06T23:52:34.592Z,22.07
2018-10-06T23:54:39.545Z,21.57
2018-10-06T23:56:44.442Z,21.97
2018-10-06T23:58:49.230Z,19.47
